Denver, Colorado
Traffic Map
Current Weather Conditions
Denver, Colorado
Few Clouds
Few Clouds
49°
Feels Like: 45°
Wind Chill: 45° Ceiling: Unl
Heat Index: 49° Visibility: 10mi
Dew Point: 37° Wind: 8mph
Humidity: 63% Direction: 180° (S)
Pressure: 30.16in Gusts: 0mph
Raw Report DataKBKF 021558Z 18007KT 10SM FEW110 FEW220 09/03 A3016 RMK AO2A SLP188 T00930026
Traffic Incident Summary
Active as of:
Severity:
Category:
InformationThere was an issue retrieving the traffic information for this location. Please try a different location or try again shortly.
Advertisements
Track Severe Weather on mobile